Time;durP1;ratioP1;P1;durP2;ratioP2;P2;SDS_P1;SDS_P2;PMS_P1;PMS_P2;Temp;Humidity;BMP_temperature;BMP_pressure;BME280_temperature;BME280_humidity;BME280_pressure;Samples;Min_cycle;Max_cycle;Signal;HPM_P1;HPM_P2
2024/01/21 00:01:23;;;;;;;16.30;10.25;;;;;;;-15.48;100.00;102362.25;5054879;28;20475;-70
2024/01/21 00:03:49;;;;;;;17.88;11.48;;;;;;;-15.19;100.00;102392.78;5055744;28;20033;-71
2024/01/21 00:06:14;;;;;;;16.70;10.50;;;;;;;-15.02;100.00;102388.97;5054747;28;20127;-70
2024/01/21 00:08:40;;;;;;;17.50;10.13;;;;;;;-14.89;100.00;102385.88;5054191;28;20048;-71
2024/01/21 00:11:07;;;;;;;15.50;10.47;;;;;;;-14.98;100.00;102364.34;5056540;28;20043;-68
2024/01/21 00:13:33;;;;;;;24.10;11.73;;;;;;;-14.81;99.76;102378.38;5057070;28;20033;-69
2024/01/21 00:15:59;;;;;;;18.43;10.70;;;;;;;-14.74;98.35;102382.81;5056420;28;20136;-69
2024/01/21 00:18:26;;;;;;;19.27;11.13;;;;;;;-14.57;97.99;102411.31;5056618;28;20522;-70
2024/01/21 00:20:51;;;;;;;19.45;10.15;;;;;;;-14.67;96.92;102420.50;5055538;28;20130;-68
2024/01/21 00:23:17;;;;;;;28.37;11.27;;;;;;;-14.86;98.15;102390.19;5055820;28;20040;-71
2024/01/21 00:25:43;;;;;;;24.20;11.60;;;;;;;-14.89;98.38;102387.56;5055545;28;20033;-72
2024/01/21 00:28:08;;;;;;;23.00;12.70;;;;;;;-14.87;98.66;102408.91;5054900;28;20116;-68
2024/01/21 00:30:34;;;;;;;19.93;11.83;;;;;;;-15.05;99.48;102424.66;5056697;28;20325;-71
2024/01/21 00:33:00;;;;;;;15.23;10.60;;;;;;;-14.93;100.00;102417.31;5061110;28;20429;-68
2024/01/21 00:35:25;;;;;;;19.50;13.63;;;;;;;-14.77;100.00;102424.50;5059941;28;20052;-69
2024/01/21 00:37:51;;;;;;;23.07;12.20;;;;;;;-14.60;100.00;102418.94;5061010;28;20037;-70
2024/01/21 00:40:16;;;;;;;22.40;11.43;;;;;;;-14.62;100.00;102398.44;5063931;28;20194;-70
2024/01/21 00:42:43;;;;;;;21.45;11.85;;;;;;;-14.60;100.00;102403.59;5064107;28;20032;-69
2024/01/21 00:45:09;;;;;;;25.80;12.30;;;;;;;-14.65;100.00;102435.88;5062128;28;20037;-69
2024/01/21 00:47:34;;;;;;;23.00;14.20;;;;;;;-14.94;100.00;102402.78;5061552;28;20036;-71
2024/01/21 00:50:00;;;;;;;30.33;12.67;;;;;;;-14.69;100.00;102439.19;5060310;28;20037;-69
2024/01/21 00:52:25;;;;;;;21.53;10.87;;;;;;;-14.77;100.00;102410.84;5058460;28;20045;-69
2024/01/21 00:54:52;;;;;;;34.70;13.90;;;;;;;-14.73;100.00;102398.19;5052672;28;20036;-69
2024/01/21 00:57:19;;;;;;;31.38;12.00;;;;;;;-14.78;100.00;102394.66;5053211;28;20059;-69
2024/01/21 00:59:44;;;;;;;22.60;10.32;;;;;;;-14.66;100.00;102408.56;5053592;28;20041;-71
2024/01/21 01:02:10;;;;;;;38.20;11.93;;;;;;;-14.40;100.00;102445.81;5054041;28;20036;-70
2024/01/21 01:04:36;;;;;;;21.00;10.30;;;;;;;-14.30;100.00;102439.19;5054380;28;20365;-70
2024/01/21 01:07:01;;;;;;;24.03;9.77;;;;;;;-14.56;100.00;102408.81;5054157;28;20124;-70
2024/01/21 01:09:27;;;;;;;30.70;9.60;;;;;;;-14.29;100.00;102461.41;5052312;28;20048;-68
2024/01/21 01:11:52;;;;;;;26.27;8.57;;;;;;;-14.37;100.00;102453.56;5052462;28;20052;-69
2024/01/21 01:14:18;;;;;;;20.63;10.87;;;;;;;-14.32;100.00;102457.09;5053993;28;20499;-68
2024/01/21 01:16:44;;;;;;;32.43;11.33;;;;;;;-14.39;100.00;102434.75;5053574;28;20417;-69
2024/01/21 01:19:10;;;;;;;29.63;11.25;;;;;;;-14.22;100.00;102465.81;5053466;28;20127;-69
2024/01/21 01:21:35;;;;;;;19.93;11.77;;;;;;;-14.38;100.00;102446.72;5053517;28;20139;-69
2024/01/21 01:24:01;;;;;;;30.77;11.07;;;;;;;-14.35;100.00;102472.38;5053153;28;20029;-68
2024/01/21 01:26:27;;;;;;;16.30;9.40;;;;;;;-14.46;100.00;102473.81;5052502;28;20464;-68
2024/01/21 01:28:52;;;;;;;12.33;7.20;;;;;;;-14.73;100.00;102441.69;5052726;28;20349;-69
2024/01/21 01:31:18;;;;;;;28.23;8.20;;;;;;;-15.04;100.00;102403.38;5053787;28;20455;-69
2024/01/21 01:33:44;;;;;;;19.08;7.07;;;;;;;-14.82;100.00;102436.31;5054755;28;20472;-69
2024/01/21 01:36:10;;;;;;;25.47;7.90;;;;;;;-14.60;100.00;102476.06;5061688;28;20059;-71
2024/01/21 01:38:36;;;;;;;20.88;8.75;;;;;;;-14.65;100.00;102487.88;5059121;28;20064;-67
2024/01/21 01:41:02;;;;;;;16.48;8.10;;;;;;;-14.65;100.00;102484.47;5057900;28;20492;-68
2024/01/21 01:43:27;;;;;;;27.03;9.23;;;;;;;-14.79;100.00;102461.97;5054060;28;20048;-71
2024/01/21 01:45:54;;;;;;;12.40;7.87;;;;;;;-14.69;100.00;102500.56;5053634;28;20447;-72
2024/01/21 01:48:20;;;;;;;66.18;9.55;;;;;;;-15.03;100.00;102448.59;5052822;28;20039;-68
2024/01/21 01:50:46;;;;;;;21.52;7.82;;;;;;;-14.64;100.00;102507.53;5052342;28;20037;-69
2024/01/21 01:53:12;;;;;;;21.60;7.78;;;;;;;-14.69;100.00;102492.91;5052300;28;20033;-70
2024/01/21 01:55:38;;;;;;;13.93;8.23;;;;;;;-14.68;100.00;102492.06;5051703;28;20472;-69
2024/01/21 01:58:03;;;;;;;21.33;7.70;;;;;;;-14.55;100.00;102504.31;5052415;28;20041;-69
2024/01/21 02:00:29;;;;;;;22.00;8.23;;;;;;;-14.88;100.00;102456.63;5052276;28;20086;-69
2024/01/21 02:02:56;;;;;;;22.90;9.63;;;;;;;-14.81;100.00;102475.53;5052272;28;20448;-70
2024/01/21 02:05:22;;;;;;;14.38;8.32;;;;;;;-14.75;100.00;102494.44;5050915;28;20044;-69
2024/01/21 02:07:47;;;;;;;14.83;8.07;;;;;;;-14.77;100.00;102503.78;5050739;28;20033;-69
2024/01/21 02:10:13;;;;;;;15.80;8.63;;;;;;;-14.58;100.00;102509.34;5051983;28;20550;-70
2024/01/21 02:12:45;;;;;;;13.97;8.30;;;;;;;-14.51;100.00;102495.88;5051857;28;20087;-68
2024/01/21 02:15:13;;;;;;;14.55;7.93;;;;;;;-14.52;100.00;102478.81;5052233;28;20029;-70
2024/01/21 02:17:42;;;;;;;13.60;7.70;;;;;;;-14.43;100.00;102504.63;5034134;28;20061;-69
2024/01/21 02:20:09;;;;;;;17.27;8.53;;;;;;;-14.26;100.00;102513.53;5052337;28;20052;-71
2024/01/21 02:22:39;;;;;;;13.98;7.82;;;;;;;-14.22;100.00;102483.75;5051816;28;20332;-67
2024/01/21 02:25:04;;;;;;;16.90;8.48;;;;;;;-14.00;100.00;102514.13;5051826;28;20469;-71
2024/01/21 02:27:30;;;;;;;26.83;9.50;;;;;;;-14.35;100.00;102421.19;5052059;28;20086;-69
2024/01/21 02:29:56;;;;;;;65.70;13.53;;;;;;;-13.92;100.00;102494.66;5051755;28;20041;-70
2024/01/21 02:32:21;;;;;;;15.90;9.20;;;;;;;-13.98;100.00;102483.44;5051754;28;20033;-70
2024/01/21 02:34:47;;;;;;;16.13;8.73;;;;;;;-13.91;100.00;102491.28;5051614;28;20511;-68
2024/01/21 02:37:12;;;;;;;24.47;9.63;;;;;;;-13.84;100.00;102489.72;5050762;28;20041;-68
2024/01/21 02:39:38;;;;;;;15.50;8.47;;;;;;;-13.63;100.00;102497.84;5051808;28;20384;-68
2024/01/21 02:42:03;;;;;;;13.93;9.70;;;;;;;-13.92;100.00;102447.69;5052423;28;20048;-68
2024/01/21 02:44:29;;;;;;;18.23;9.47;;;;;;;-13.64;100.00;102506.38;5051822;28;20540;-68
2024/01/21 02:46:54;;;;;;;16.07;9.60;;;;;;;-13.73;100.00;102465.19;5051941;28;20148;-69
2024/01/21 02:49:23;;;;;;;19.07;10.33;;;;;;;-13.78;100.00;102462.53;5051471;28;20051;-70
2024/01/21 02:51:49;;;;;;;13.52;8.52;;;;;;;-13.78;100.00;102467.66;5051720;28;20035;-68
2024/01/21 02:54:15;;;;;;;15.00;8.47;;;;;;;-13.71;100.00;102478.91;5051776;28;20029;-70
2024/01/21 02:56:40;;;;;;;13.77;8.53;;;;;;;-13.82;100.00;102498.31;5050277;28;20477;-70
2024/01/21 02:59:06;;;;;;;14.47;9.37;;;;;;;-14.14;100.00;102457.50;5050879;28;20754;-69
2024/01/21 03:01:33;;;;;;;14.27;8.53;;;;;;;-13.89;100.00;102509.22;5051457;28;20346;-69
2024/01/21 03:03:59;;;;;;;16.40;9.65;;;;;;;-13.91;100.00;102501.50;5051647;28;20028;-70
2024/01/21 03:06:24;;;;;;;10.63;8.93;;;;;;;-13.96;100.00;102515.91;5050802;28;20041;-70
2024/01/21 03:08:50;;;;;;;10.57;7.97;;;;;;;-14.09;100.00;102491.75;5055407;28;20116;-70
2024/01/21 03:11:15;;;;;;;12.17;9.50;;;;;;;-14.02;100.00;102510.66;5056044;28;20477;-68
2024/01/21 03:13:41;;;;;;;16.73;8.80;;;;;;;-14.20;100.00;102500.84;5054277;28;20459;-68
2024/01/21 03:16:06;;;;;;;9.77;7.10;;;;;;;-14.12;100.00;102524.97;5054404;28;20043;-68
2024/01/21 03:18:38;;;;;;;12.47;7.83;;;;;;;-13.99;100.00;102544.00;5055311;28;20048;-70
2024/01/21 03:21:07;;;;;;;13.82;8.00;;;;;;;-13.97;100.00;102537.22;5055222;28;20051;-65
2024/01/21 03:23:34;;;;;;;19.10;10.48;;;;;;;-14.11;99.62;102534.38;5055167;28;20127;-67
2024/01/21 03:26:00;;;;;;;18.15;11.27;;;;;;;-14.14;99.58;102534.31;5054539;28;20037;-73
2024/01/21 03:28:25;;;;;;;13.63;9.05;;;;;;;-14.23;99.44;102523.81;5055391;28;20051;-68
2024/01/21 03:30:51;;;;;;;12.63;8.87;;;;;;;-14.16;99.57;102535.97;5055171;28;20029;-68
2024/01/21 03:33:16;;;;;;;13.37;8.33;;;;;;;-14.24;99.38;102519.53;5055529;28;20175;-68
2024/01/21 03:35:42;;;;;;;15.87;9.43;;;;;;;-14.33;98.83;102519.31;5055799;28;20043;-69
2024/01/21 03:38:07;;;;;;;16.63;9.73;;;;;;;-14.55;98.40;102481.28;5055653;28;20128;-67
2024/01/21 03:40:33;;;;;;;13.63;8.57;;;;;;;-14.35;98.21;102521.00;5054425;28;20033;-67
2024/01/21 03:42:58;;;;;;;17.50;11.00;;;;;;;-14.29;98.27;102533.94;5055166;28;20045;-70
2024/01/21 03:45:24;;;;;;;13.77;9.93;;;;;;;-14.58;98.04;102505.09;5055565;28;20043;-67
2024/01/21 03:47:49;;;;;;;13.50;8.90;;;;;;;-14.54;97.84;102526.50;5054816;28;20033;-67
2024/01/21 03:50:18;;;;;;;19.27;8.97;;;;;;;-14.43;98.13;102540.44;5055169;28;20033;-68
2024/01/21 03:52:44;;;;;;;22.80;12.67;;;;;;;-14.44;97.82;102549.81;5054870;28;20060;-69
2024/01/21 03:55:10;;;;;;;18.92;10.82;;;;;;;-14.58;97.35;102533.25;5054859;28;20317;-67
2024/01/21 03:57:36;;;;;;;16.33;11.20;;;;;;;-14.72;97.26;102525.25;5055124;28;20132;-69
2024/01/21 04:00:02;;;;;;;18.93;10.07;;;;;;;-14.63;97.23;102549.31;5037051;28;20035;-68
2024/01/21 04:02:30;;;;;;;17.02;11.75;;;;;;;-14.70;97.02;102539.75;5054708;28;20373;-68
2024/01/21 04:04:56;;;;;;;15.95;10.30;;;;;;;-14.69;96.76;102556.84;5056377;28;20131;-68
2024/01/21 04:07:21;;;;;;;22.55;11.10;;;;;;;-14.97;95.80;102535.66;5058791;28;20548;-67
2024/01/21 04:09:47;;;;;;;17.87;10.40;;;;;;;-14.87;96.33;102562.31;5055651;28;20043;-69
2024/01/21 04:12:13;;;;;;;17.73;10.20;;;;;;;-14.72;97.29;102589.19;5055460;28;20033;-70
2024/01/21 04:14:39;;;;;;;18.30;9.83;;;;;;;-14.75;96.53;102583.09;5059328;28;20415;-69
2024/01/21 04:17:05;;;;;;;21.45;13.93;;;;;;;-14.77;96.13;102595.84;5058063;28;20057;-68
2024/01/21 04:19:31;;;;;;;20.65;11.02;;;;;;;-14.72;97.32;102607.06;5059534;28;20064;-68
2024/01/21 04:21:58;;;;;;;20.10;10.07;;;;;;;-14.61;96.98;102614.16;5058487;28;20092;-67
2024/01/21 04:24:24;;;;;;;20.10;12.30;;;;;;;-14.67;96.01;102614.00;5058313;28;20033;-70
2024/01/21 04:26:49;;;;;;;18.37;11.57;;;;;;;-14.88;96.28;102566.56;5054561;28;20385;-67
2024/01/21 04:29:15;;;;;;;19.00;9.80;;;;;;;-14.56;97.16;102587.00;5055550;28;20036;-67
2024/01/21 04:31:44;;;;;;;19.50;12.50;;;;;;;-14.53;96.96;102564.06;5054358;28;20032;-69
2024/01/21 04:34:09;;;;;;;22.58;10.93;;;;;;;-14.36;96.07;102577.25;5055296;28;20044;-68
2024/01/21 04:36:35;;;;;;;22.80;12.10;;;;;;;-14.20;96.51;102598.13;5056785;28;20045;-69
2024/01/21 04:39:01;;;;;;;20.33;11.77;;;;;;;-14.11;96.12;102580.44;5054842;28;20047;-67
2024/01/21 04:41:26;;;;;;;18.10;11.13;;;;;;;-13.92;95.57;102593.66;5054446;28;20071;-68
2024/01/21 04:43:52;;;;;;;22.53;13.90;;;;;;;-13.74;95.83;102606.91;5054756;28;20479;-69
2024/01/21 04:46:17;;;;;;;17.93;11.53;;;;;;;-14.12;95.83;102532.63;5053827;28;20045;-69
2024/01/21 04:48:43;;;;;;;20.03;10.60;;;;;;;-13.56;95.45;102609.91;5053022;28;20077;-67
2024/01/21 04:51:08;;;;;;;20.43;11.27;;;;;;;-13.59;96.14;102581.63;5052607;28;20032;-67
2024/01/21 04:53:37;;;;;;;22.03;12.07;;;;;;;-13.58;96.13;102573.13;5052393;28;20195;-68
2024/01/21 04:56:03;;;;;;;;;;;;;;;-13.27;96.05;102599.41;5054270;28;20149;-69
2024/01/21 04:58:28;;;;;;;20.93;11.40;;;;;;;-13.52;95.87;102549.34;5053527;28;19986;-69
2024/01/21 05:00:54;;;;;;;25.10;14.10;;;;;;;-13.20;95.60;102603.84;5053557;28;20039;-68
2024/01/21 05:03:20;;;;;;;11.97;8.67;;;;;;;-13.41;96.22;102577.72;5053204;28;20481;-70
2024/01/21 05:05:46;;;;;;;23.20;12.35;;;;;;;-13.25;96.85;102597.75;5053494;28;20117;-69
2024/01/21 05:08:12;;;;;;;19.33;11.17;;;;;;;-13.26;96.68;102596.03;5051990;28;20123;-69
2024/01/21 05:10:37;;;;;;;23.17;13.57;;;;;;;-13.25;96.25;102593.47;5053503;28;20280;-69
2024/01/21 05:13:03;;;;;;;25.63;12.00;;;;;;;-13.42;96.17;102593.94;5053410;28;20069;-68
2024/01/21 05:15:29;;;;;;;21.83;12.45;;;;;;;-13.28;97.02;102618.19;5053249;28;20098;-71
2024/01/21 05:17:56;;;;;;;25.53;13.33;;;;;;;-13.20;98.37;102601.28;5053588;28;20170;-68
2024/01/21 05:20:22;;;;;;;21.63;13.45;;;;;;;-13.05;98.24;102609.22;5052752;28;20044;-68
2024/01/21 05:22:48;;;;;;;14.67;10.67;;;;;;;-13.41;98.17;102534.16;5054163;28;20124;-69
2024/01/21 05:25:13;;;;;;;22.57;11.70;;;;;;;-12.95;98.41;102613.72;5053638;28;20295;-71
2024/01/21 05:27:39;;;;;;;22.93;13.17;;;;;;;-12.82;98.34;102614.81;5036119;28;20037;-68
2024/01/21 05:30:06;;;;;;;21.40;12.00;;;;;;;-12.85;98.46;102591.66;5055196;28;20059;-68
2024/01/21 05:32:32;;;;;;;19.70;12.50;;;;;;;-12.70;98.52;102589.41;5053597;28;20071;-70
2024/01/21 05:34:57;;;;;;;18.83;11.57;;;;;;;-12.65;97.97;102589.50;5053096;28;20068;-68
2024/01/21 05:37:28;;;;;;;28.17;16.67;;;;;;;-12.69;97.91;102587.72;5052939;28;20051;-66
2024/01/21 05:39:54;;;;;;;23.65;12.02;;;;;;;-12.57;98.52;102600.75;5053104;28;20063;-69
2024/01/21 05:42:19;;;;;;;17.97;11.67;;;;;;;-12.47;98.64;102597.50;5052967;28;20492;-67
2024/01/21 05:44:45;;;;;;;21.97;14.80;;;;;;;-12.47;98.37;102606.91;5052697;28;20072;-68
2024/01/21 05:47:10;;;;;;;26.63;15.00;;;;;;;-12.55;99.86;102575.97;5051535;28;20029;-67
2024/01/21 05:49:36;;;;;;;24.97;13.57;;;;;;;-12.37;100.00;102596.84;5053764;28;20074;-70
2024/01/21 05:52:01;;;;;;;28.33;15.63;;;;;;;-12.67;100.00;102522.75;5053208;28;20431;-67
2024/01/21 05:54:27;;;;;;;36.40;15.87;;;;;;;-12.14;100.00;102589.53;5052197;28;20617;-68
2024/01/21 05:56:52;;;;;;;35.17;20.63;;;;;;;-12.10;100.00;102593.03;5051778;28;20043;-68
2024/01/21 05:59:19;;;;;;;31.93;18.03;;;;;;;-12.10;100.00;102581.03;5053095;28;20033;-69
2024/01/21 06:01:51;;;;;;;33.83;16.17;;;;;;;-12.03;100.00;102574.28;5051160;28;20137;-70
2024/01/21 06:04:17;;;;;;;50.45;20.10;;;;;;;-11.83;100.00;102596.03;5052538;28;20425;-69
2024/01/21 06:06:42;;;;;;;49.43;25.87;;;;;;;-12.01;100.00;102576.03;5052448;28;20435;-68
2024/01/21 06:09:08;;;;;;;53.67;26.57;;;;;;;-12.03;100.00;102585.44;5052296;28;20048;-69
2024/01/21 06:11:34;;;;;;;46.07;24.43;;;;;;;-12.77;100.00;102454.13;5052630;28;20483;-67
2024/01/21 06:14:02;;;;;;;41.87;25.20;;;;;;;-11.81;100.00;102603.75;5051012;28;20075;-69
2024/01/21 06:16:32;;;;;;;41.83;22.83;;;;;;;-12.09;100.00;102580.19;5052399;28;20044;-68
2024/01/21 06:18:57;;;;;;;52.50;30.90;;;;;;;-12.02;100.00;102607.69;5034643;28;20052;-67
2024/01/21 06:21:23;;;;;;;50.13;26.13;;;;;;;-12.03;100.00;102599.97;5050755;28;20073;-68
2024/01/21 06:23:49;;;;;;;48.77;25.77;;;;;;;-12.09;100.00;102580.19;5034114;28;20192;-69
2024/01/21 06:26:19;;;;;;;53.95;26.40;;;;;;;-11.75;100.00;102612.38;5034869;28;20459;-68
2024/01/21 06:28:49;;;;;;;51.47;28.58;;;;;;;-11.66;100.00;102615.06;5050645;28;20063;-66
2024/01/21 06:31:15;;;;;;;46.35;27.27;;;;;;;-11.85;100.00;102579.72;5052404;28;20072;-69
2024/01/21 06:33:41;;;;;;;55.67;29.80;;;;;;;-11.65;100.00;102613.38;5050618;28;20043;-71
2024/01/21 06:36:07;;;;;;;56.92;29.67;;;;;;;-11.66;100.00;102602.22;5051034;28;20092;-68
2024/01/21 06:38:36;;;;;;;62.53;29.65;;;;;;;-11.63;100.00;102601.41;5052129;28;20044;-68
2024/01/21 06:41:01;;;;;;;52.97;29.08;;;;;;;-11.64;100.00;102608.25;5033769;28;20094;-66
2024/01/21 06:43:27;;;;;;;49.37;30.40;;;;;;;-11.71;100.00;102591.03;5050294;28;20536;-69
2024/01/21 06:45:53;;;;;;;59.40;32.57;;;;;;;-11.85;100.00;102554.03;5050001;28;20136;-71
2024/01/21 06:48:18;;;;;;;55.53;31.57;;;;;;;-11.61;100.00;102574.00;5051404;28;20043;-69
2024/01/21 06:50:48;;;;;;;53.10;33.17;;;;;;;-11.46;100.00;102588.81;5049937;28;20044;-68
2024/01/21 06:53:15;;;;;;;70.30;36.15;;;;;;;-11.46;100.00;102578.53;5035378;28;20034;-68
2024/01/21 06:55:43;;;;;;;56.13;29.65;;;;;;;-11.53;100.00;102561.28;5045673;28;20040;-69
2024/01/21 06:58:08;;;;;;;49.67;30.38;;;;;;;-11.29;100.00;102589.88;5047086;28;20441;-67
2024/01/21 07:00:34;;;;;;;58.23;31.40;;;;;;;-11.23;100.00;102591.69;5049618;28;20079;-67
2024/01/21 07:02:59;;;;;;;53.60;31.00;;;;;;;-11.36;100.00;102570.06;5046456;28;20500;-69
2024/01/21 07:05:25;;;;;;;54.77;32.83;;;;;;;-11.27;100.00;102591.66;5043400;28;20033;-69
2024/01/21 07:07:50;;;;;;;58.70;30.30;;;;;;;-11.40;100.00;102573.44;5046815;28;20033;-68
2024/01/21 07:10:16;;;;;;;54.27;29.17;;;;;;;-11.15;100.00;102592.63;5050426;28;20045;-68
2024/01/21 07:12:42;;;;;;;61.63;29.97;;;;;;;-11.35;100.00;102551.22;5048885;28;20036;-68
2024/01/21 07:15:08;;;;;;;60.45;29.90;;;;;;;-11.10;100.00;102575.53;5029604;28;20050;-68
2024/01/21 07:17:36;;;;;;;51.37;27.57;;;;;;;-10.87;100.00;102596.41;5052571;28;20053;-69
2024/01/21 07:20:03;;;;;;;50.38;27.52;;;;;;;-10.87;100.00;102586.97;5048034;28;20790;-66
2024/01/21 07:22:29;;;;;;;50.85;27.27;;;;;;;-10.93;100.00;102580.91;5047694;28;20068;-69
2024/01/21 07:24:55;;;;;;;50.20;26.40;;;;;;;-11.10;100.00;102550.69;5047747;28;20141;-67
2024/01/21 07:27:21;;;;;;;44.67;24.53;;;;;;;-10.82;100.00;102584.44;5047703;28;20037;-69
2024/01/21 07:29:46;;;;;;;43.38;23.70;;;;;;;-10.72;100.00;102589.69;5048830;28;20048;-71
2024/01/21 07:32:12;;;;;;;46.90;25.83;;;;;;;-10.64;100.00;102584.66;5024417;28;20037;-69
2024/01/21 07:34:38;;;;;;;50.50;31.13;;;;;;;-10.40;100.00;102595.19;5047676;28;20041;-68
2024/01/21 07:37:03;;;;;;;47.60;25.00;;;;;;;-10.52;100.00;102565.88;5048248;28;20120;-69
2024/01/21 07:39:30;;;;;;;39.23;23.93;;;;;;;-10.45;100.00;102594.25;5045722;28;20059;-70
2024/01/21 07:41:56;;;;;;;48.50;25.70;;;;;;;-10.56;100.00;102583.00;5035079;28;20144;-71
2024/01/21 07:44:21;;;;;;;50.70;27.33;;;;;;;-10.66;100.00;102566.63;5039668;28;20545;-68
2024/01/21 07:46:48;;;;;;;48.23;25.17;;;;;;;-10.82;100.00;102532.97;5045637;28;20533;-71
2024/01/21 07:49:13;;;;;;;41.55;25.65;;;;;;;-10.40;100.00;102594.34;5025854;28;20049;-71
2024/01/21 07:51:39;;;;;;;50.13;27.37;;;;;;;-10.59;100.00;102559.81;5037196;28;20542;-68
2024/01/21 07:54:04;;;;;;;58.40;28.73;;;;;;;-10.40;100.00;102586.63;5040218;28;20120;-76
2024/01/21 07:56:30;;;;;;;46.23;26.70;;;;;;;-10.55;100.00;102563.28;5041986;28;20079;-74
2024/01/21 07:58:56;;;;;;;62.20;30.03;;;;;;;-10.31;100.00;102599.56;5068552;28;20458;-73
2024/01/21 08:01:23;;;;;;;29.00;18.50;;;;;;;-10.57;100.00;102539.22;5035821;28;20044;-75
2024/01/21 08:03:48;;;;;;;27.27;17.05;;;;;;;-10.52;100.00;102553.88;5049005;28;20045;-75
2024/01/21 08:06:17;;;;;;;27.57;15.90;;;;;;;-10.32;100.00;102575.53;5016700;28;20044;-75
2024/01/21 08:08:43;;;;;;;42.33;16.80;;;;;;;-10.20;100.00;102595.31;5016195;28;20099;-74
2024/01/21 08:11:08;;;;;;;24.37;14.83;;;;;;;-10.25;100.00;102585.88;5049676;28;20399;-72
2024/01/21 08:13:34;;;;;;;27.93;16.17;;;;;;;-10.35;100.00;102567.78;5034800;28;20438;-69
2024/01/21 08:16:00;;;;;;;20.17;13.17;;;;;;;-10.24;100.00;102590.16;5042756;28;20038;-68
2024/01/21 08:18:27;;;;;;;21.90;14.33;;;;;;;-10.36;100.00;102576.34;5028882;28;20251;-70
2024/01/21 08:20:52;;;;;;;22.13;14.48;;;;;;;-10.35;100.00;102583.22;5048962;28;20041;-70
2024/01/21 08:23:19;;;;;;;20.07;13.30;;;;;;;-10.50;100.00;102561.59;5047347;28;20493;-68
2024/01/21 08:25:44;;;;;;;17.52;12.88;;;;;;;-10.49;100.00;102553.88;5039394;28;20116;-70
2024/01/21 08:28:10;;;;;;;21.70;14.77;;;;;;;-10.32;100.00;102588.41;5043470;28;20507;-69
2024/01/21 08:30:35;;;;;;;25.87;13.67;;;;;;;-10.35;100.00;102572.06;5044437;28;20036;-69
2024/01/21 08:33:01;;;;;;;19.83;13.07;;;;;;;-10.34;100.00;102579.78;5044795;28;20123;-71
2024/01/21 08:35:27;;;;;;;22.53;13.90;;;;;;;-10.23;100.00;102586.75;5039791;28;20029;-70
2024/01/21 08:37:52;;;;;;;24.03;14.33;;;;;;;-10.08;100.00;102599.75;5039721;28;20049;-70
2024/01/21 08:40:18;;;;;;;19.73;14.77;;;;;;;-10.02;100.00;102576.59;5043253;28;20049;-71
2024/01/21 08:42:44;;;;;;;20.27;13.23;;;;;;;-10.11;100.00;102546.47;5049967;28;20135;-72
2024/01/21 08:45:10;;;;;;;26.33;14.77;;;;;;;-10.14;100.00;102520.66;5052900;28;20075;-72
2024/01/21 08:47:35;;;;;;;25.37;13.27;;;;;;;-9.66;100.00;102591.44;5048903;28;20116;-71
2024/01/21 08:50:01;;;;;;;21.90;12.10;;;;;;;-9.74;100.00;102557.03;5037102;28;20052;-70
2024/01/21 08:52:26;;;;;;;20.10;13.57;;;;;;;-9.75;100.00;102545.84;5052890;28;20048;-71
2024/01/21 08:54:52;;;;;;;25.23;14.40;;;;;;;-9.70;100.00;102557.06;5050862;28;20106;-70
2024/01/21 08:57:18;;;;;;;20.67;13.23;;;;;;;-9.59;100.00;102571.72;5074890;28;20044;-70
2024/01/21 08:59:44;;;;;;;20.70;12.70;;;;;;;-9.74;100.00;102563.03;5038520;28;20041;-71
2024/01/21 09:02:10;;;;;;;20.13;13.20;;;;;;;-9.80;100.00;102573.31;5039942;28;20045;-73
2024/01/21 09:04:39;;;;;;;17.90;13.87;;;;;;;-9.91;100.00;102569.78;5039774;28;20179;-71
2024/01/21 09:07:05;;;;;;;16.20;11.75;;;;;;;-10.02;100.00;102549.09;5039552;28;20036;-72
2024/01/21 09:09:31;;;;;;;19.87;12.33;;;;;;;-9.82;100.00;102585.34;5021982;28;20033;-70
2024/01/21 09:11:57;;;;;;;16.77;11.90;;;;;;;-9.94;100.00;102549.16;5044931;28;20049;-67
2024/01/21 09:14:23;;;;;;;19.50;12.90;;;;;;;-9.70;100.00;102585.41;5045058;28;20656;-72
2024/01/21 09:16:51;;;;;;;21.70;13.15;;;;;;;-9.90;100.00;102550.88;5029130;28;21525;-73
2024/01/21 09:19:17;;;;;;;17.85;12.05;;;;;;;-9.62;100.00;102592.31;5044354;28;20110;-70
2024/01/21 09:21:42;;;;;;;21.33;12.17;;;;;;;-9.76;100.00;102567.34;5043513;28;20516;-72
2024/01/21 09:24:08;;;;;;;22.60;13.23;;;;;;;-9.61;100.00;102601.78;5046884;28;20048;-70
2024/01/21 09:26:34;;;;;;;16.57;13.07;;;;;;;-9.84;100.00;102548.34;5038004;28;20518;-71
2024/01/21 09:29:00;;;;;;;30.13;14.07;;;;;;;-9.74;100.00;102568.19;5042379;28;20394;-71
2024/01/21 09:31:30;;;;;;;15.25;10.73;;;;;;;-9.58;100.00;102609.53;5044515;28;20056;-71
2024/01/21 09:33:56;;;;;;;24.67;13.88;;;;;;;-9.73;100.00;102587.13;5052671;28;20482;-69
2024/01/21 09:36:23;;;;;;;22.43;13.47;;;;;;;-9.80;100.00;102599.09;5050806;28;20064;-70
2024/01/21 09:38:51;;;;;;;23.02;14.75;;;;;;;-9.88;100.00;102629.09;5041887;28;20076;-72
2024/01/21 09:41:37;;;;;;;21.73;14.32;;;;;;;-9.88;100.00;102636.81;5037264;28;20059;-72
2024/01/21 09:44:03;;;;;;;20.55;13.18;;;;;;;-10.33;100.00;102580.66;5042686;28;20059;-70
2024/01/21 09:46:29;;;;;;;21.03;11.53;;;;;;;-10.29;100.00;102613.31;5045179;28;20036;-70
2024/01/21 09:48:59;;;;;;;19.05;14.13;;;;;;;-10.20;100.00;102638.28;5047343;28;20333;-69
2024/01/21 09:51:26;;;;;;;22.30;14.25;;;;;;;-10.37;100.00;102608.09;5039604;28;20045;-70
2024/01/21 09:53:52;;;;;;;16.92;12.32;;;;;;;-10.20;100.00;102635.72;5038063;28;20063;-70
2024/01/21 09:56:18;;;;;;;21.80;13.17;;;;;;;-10.21;100.00;102646.88;5039228;28;20194;-70
2024/01/21 09:58:51;;;;;;;29.63;14.07;;;;;;;-10.21;100.00;102641.72;5043508;28;20036;-73
2024/01/21 10:01:17;;;;;;;22.25;12.15;;;;;;;-10.22;100.00;102640.00;5040856;28;20041;-72
2024/01/21 10:03:44;;;;;;;21.65;13.73;;;;;;;-10.15;100.00;102641.75;5040186;28;20094;-68
2024/01/21 10:06:10;;;;;;;32.13;13.77;;;;;;;-10.21;100.00;102626.25;5032967;28;20045;-71
2024/01/21 10:08:40;;;;;;;18.67;13.63;;;;;;;-10.16;100.00;102629.72;5042649;28;20505;-72
2024/01/21 10:11:06;;;;;;;24.80;14.18;;;;;;;-10.04;100.00;102653.03;5044491;28;20040;-69
2024/01/21 10:13:35;;;;;;;21.98;14.55;;;;;;;-10.10;100.00;102655.56;5038679;28;20052;-69
2024/01/21 10:16:01;;;;;;;18.52;11.13;;;;;;;-10.35;100.00;102639.03;5037786;28;20064;-72
2024/01/21 10:18:28;;;;;;;13.60;10.13;;;;;;;-10.20;100.00;102671.78;5035102;28;20096;-70
2024/01/21 10:20:56;;;;;;;12.57;8.90;;;;;;;-10.41;99.69;102650.13;5041271;28;20081;-71
2024/01/21 10:23:22;;;;;;;14.88;9.02;;;;;;;-10.45;97.79;102643.19;5043815;28;20033;-71
2024/01/21 10:25:48;;;;;;;12.43;9.10;;;;;;;-10.45;97.54;102644.91;5021285;28;20479;-71
2024/01/21 10:28:15;;;;;;;12.80;8.77;;;;;;;-10.29;96.95;102648.53;5041292;28;20041;-71
2024/01/21 10:30:42;;;;;;;10.50;8.10;;;;;;;-10.56;96.76;102593.31;5047014;28;20036;-67
2024/01/21 10:33:08;;;;;;;9.60;8.55;;;;;;;-10.24;96.00;102637.41;5046570;28;20042;-71
2024/01/21 10:35:33;;;;;;;8.87;7.53;;;;;;;-10.44;95.17;102623.47;5046894;28;20193;-67
2024/01/21 10:38:02;;;;;;;9.33;7.33;;;;;;;-10.43;95.14;102641.50;5048891;28;20057;-67
2024/01/21 10:40:27;;;;;;;9.43;5.68;;;;;;;-10.83;94.15;102601.59;5050536;28;20064;-72
2024/01/21 10:42:55;;;;;;;9.40;6.97;;;;;;;-10.73;95.55;102636.03;5046584;28;20563;-67
2024/01/21 10:45:22;;;;;;;11.10;7.25;;;;;;;-10.65;96.33;102631.84;5048161;28;20147;-71
2024/01/21 10:47:52;;;;;;;8.30;7.03;;;;;;;-10.65;97.59;102611.25;5053073;28;20514;-76
2024/01/21 10:50:20;;;;;;;6.85;5.97;;;;;;;-10.52;98.35;102615.66;5043586;28;20065;-71
2024/01/21 10:52:47;;;;;;;7.82;6.97;;;;;;;-10.83;98.77;102567.28;5044139;28;20495;-73
2024/01/21 10:55:13;;;;;;;11.07;7.47;;;;;;;-10.57;99.92;102599.31;5034774;28;20086;-72